createdAt,value
2022-09-07T00:01:53.589Z,4.47
2022-09-07T00:03:57.604Z,4.70
2022-09-07T00:05:59.948Z,8.15
2022-09-07T00:08:02.101Z,6.22
2022-09-07T00:10:04.259Z,2.85
2022-09-07T00:12:06.334Z,5.40
2022-09-07T00:14:08.516Z,4.72
2022-09-07T00:16:13.578Z,7.88
2022-09-07T00:18:16.081Z,6.13
2022-09-07T00:20:18.420Z,6.03
2022-09-07T00:22:20.486Z,3.80
2022-09-07T00:24:22.548Z,3.47
2022-09-07T00:26:28.231Z,7.10
2022-09-07T00:28:31.274Z,4.63
2022-09-07T00:30:34.142Z,5.00
2022-09-07T00:32:36.368Z,4.35
2022-09-07T00:34:38.473Z,4.88
2022-09-07T00:36:40.524Z,5.53
2022-09-07T00:38:42.819Z,3.20
2022-09-07T00:40:44.935Z,9.30
2022-09-07T00:42:46.969Z,3.47
2022-09-07T00:45:08.770Z,5.50
2022-09-07T00:47:14.294Z,4.65
2022-09-07T00:49:22.120Z,4.07
2022-09-07T00:51:41.113Z,5.35
2022-09-07T00:53:56.075Z,5.72
2022-09-07T00:55:59.635Z,7.03
2022-09-07T00:58:02.509Z,5.75
2022-09-07T01:00:05.927Z,4.90
2022-09-07T01:02:08.537Z,6.05
2022-09-07T01:04:10.901Z,8.68
2022-09-07T01:06:43.542Z,5.25
2022-09-07T01:08:49.916Z,5.70
2022-09-07T01:10:52.002Z,6.53
2022-09-07T01:12:54.378Z,5.03
2022-09-07T01:14:56.726Z,4.22
2022-09-07T01:17:07.632Z,4.40
2022-09-07T01:19:12.627Z,4.03
2022-09-07T01:21:21.041Z,5.57
2022-09-07T01:23:43.475Z,5.05
2022-09-07T01:26:22.494Z,3.85
2022-09-07T01:28:31.265Z,9.23
2022-09-07T01:30:38.176Z,5.03
2022-09-07T01:32:49.779Z,7.28
2022-09-07T01:34:53.934Z,5.30
2022-09-07T01:37:14.362Z,3.53
2022-09-07T01:39:20.001Z,5.22
2022-09-07T01:41:30.364Z,4.47
2022-09-07T01:44:11.257Z,4.80
2022-09-07T01:46:28.925Z,4.82
2022-09-07T01:48:35.100Z,5.82
2022-09-07T01:50:43.475Z,3.22
2022-09-07T01:53:01.154Z,2.97
2022-09-07T01:55:36.361Z,3.92
2022-09-07T01:57:46.398Z,5.25
2022-09-07T02:00:11.048Z,3.65
2022-09-07T02:02:24.723Z,4.70
2022-09-07T02:04:56.289Z,3.47
2022-09-07T02:07:27.574Z,4.00
2022-09-07T02:09:36.446Z,5.00
2022-09-07T02:11:42.363Z,5.32
2022-09-07T02:14:01.020Z,3.60
2022-09-07T02:16:21.385Z,5.40
2022-09-07T02:18:25.878Z,3.55
2022-09-07T02:20:34.625Z,8.80
2022-09-07T02:22:42.309Z,4.18
2022-09-07T02:24:50.534Z,5.35
2022-09-07T02:26:54.588Z,3.53
2022-09-07T02:28:57.463Z,3.35
2022-09-07T02:31:00.242Z,4.40
2022-09-07T02:33:02.238Z,3.85
2022-09-07T02:35:08.564Z,3.85
2022-09-07T02:37:12.979Z,4.63
2022-09-07T02:39:18.020Z,5.82
2022-09-07T02:41:31.467Z,3.50
2022-09-07T02:43:33.892Z,3.40
2022-09-07T02:46:12.848Z,5.68
2022-09-07T02:48:28.990Z,6.78
2022-09-07T02:50:47.944Z,3.90
2022-09-07T02:52:50.048Z,3.55
2022-09-07T02:55:40.064Z,5.53
2022-09-07T02:58:07.533Z,5.07
2022-09-07T03:00:13.366Z,7.47
2022-09-07T03:02:24.415Z,7.20
2022-09-07T03:05:06.825Z,5.63
2022-09-07T03:07:17.628Z,3.67
2022-09-07T03:09:31.289Z,5.05
2022-09-07T03:11:37.084Z,3.88
2022-09-07T03:13:39.082Z,6.80
2022-09-07T03:15:41.207Z,3.42
2022-09-07T03:17:45.480Z,5.93
2022-09-07T03:19:47.816Z,6.38
2022-09-07T03:21:49.950Z,7.22
2022-09-07T03:23:52.095Z,4.43
2022-09-07T03:25:54.383Z,6.43
2022-09-07T03:27:56.958Z,5.35
2022-09-07T03:30:00.804Z,6.60
2022-09-07T03:32:03.126Z,5.80
2022-09-07T03:34:05.124Z,4.00
2022-09-07T03:36:07.943Z,5.47
2022-09-07T03:38:10.289Z,4.05
2022-09-07T03:40:14.024Z,5.15
2022-09-07T03:42:16.270Z,5.30
2022-09-07T03:44:18.365Z,3.67
2022-09-07T03:46:20.947Z,4.28
2022-09-07T03:48:23.435Z,6.88
2022-09-07T03:50:25.839Z,5.40
2022-09-07T03:52:28.177Z,4.13
2022-09-07T03:54:30.396Z,5.55
2022-09-07T03:56:32.700Z,4.90
2022-09-07T03:58:36.011Z,6.03
2022-09-07T04:00:41.531Z,5.90
2022-09-07T04:02:43.784Z,5.00
2022-09-07T04:05:11.704Z,4.68
2022-09-07T04:07:14.334Z,6.07
2022-09-07T04:09:16.743Z,7.75
2022-09-07T04:11:19.646Z,6.35
2022-09-07T04:13:22.404Z,4.43
2022-09-07T04:15:24.885Z,6.47
2022-09-07T04:17:26.887Z,4.63
2022-09-07T04:19:30.296Z,3.50
2022-09-07T04:21:33.856Z,5.40
2022-09-07T04:23:39.557Z,3.88
2022-09-07T04:25:49.606Z,4.63
2022-09-07T04:27:51.893Z,6.38
2022-09-07T04:29:54.066Z,6.55
2022-09-07T04:31:56.714Z,7.10
2022-09-07T04:33:58.855Z,5.25
2022-09-07T04:36:02.107Z,4.28
2022-09-07T04:38:04.455Z,7.13
2022-09-07T04:40:06.951Z,4.65
2022-09-07T04:42:09.292Z,4.72
2022-09-07T04:44:16.932Z,4.00
2022-09-07T04:46:22.791Z,5.10
2022-09-07T04:48:25.139Z,5.78
2022-09-07T04:50:27.247Z,4.72
2022-09-07T04:52:29.631Z,3.63
2022-09-07T04:54:31.683Z,3.78
2022-09-07T04:56:34.152Z,3.85
2022-09-07T04:58:36.620Z,7.95
2022-09-07T05:00:41.742Z,4.22
2022-09-07T05:02:43.917Z,5.35
2022-09-07T05:04:46.073Z,5.88
2022-09-07T05:06:48.653Z,3.97
2022-09-07T05:08:52.892Z,4.05
2022-09-07T05:10:57.528Z,5.03
2022-09-07T05:13:00.038Z,8.65
2022-09-07T05:15:02.310Z,5.75
2022-09-07T05:17:04.635Z,5.15
2022-09-07T05:19:06.625Z,3.72
2022-09-07T05:21:13.333Z,6.28
2022-09-07T05:23:15.352Z,4.80
2022-09-07T05:25:17.573Z,3.85
2022-09-07T05:27:19.675Z,4.13
2022-09-07T05:31:44.065Z,4.03
2022-09-07T05:36:16.580Z,4.55
2022-09-07T05:38:19.106Z,4.30
2022-09-07T05:40:22.355Z,3.92
2022-09-07T05:42:24.599Z,4.55
2022-09-07T05:46:44.522Z,4.38
2022-09-07T05:48:47.118Z,4.25
2022-09-07T05:50:53.145Z,3.92
2022-09-07T05:52:55.337Z,3.75
2022-09-07T05:55:07.765Z,3.38
2022-09-07T05:57:19.777Z,4.95
2022-09-07T05:59:24.909Z,3.88
2022-09-07T06:01:27.038Z,4.03
2022-09-07T06:03:29.925Z,3.30
2022-09-07T06:05:32.193Z,4.28
2022-09-07T06:07:34.447Z,5.90
2022-09-07T06:11:59.750Z,4.00
2022-09-07T06:14:02.033Z,4.10
2022-09-07T06:16:07.431Z,3.33
2022-09-07T06:18:09.763Z,5.15
2022-09-07T06:20:11.909Z,3.25
2022-09-07T06:22:13.960Z,3.55
2022-09-07T06:24:16.264Z,3.55
2022-09-07T06:26:20.340Z,4.63
2022-09-07T06:28:35.404Z,4.30
2022-09-07T06:30:37.499Z,5.20
2022-09-07T06:32:43.046Z,4.03
2022-09-07T06:34:45.688Z,3.22
2022-09-07T06:36:47.850Z,4.82
2022-09-07T06:38:51.845Z,6.00
2022-09-07T06:43:17.288Z,3.85
2022-09-07T06:45:19.926Z,3.08
2022-09-07T06:47:22.100Z,4.40
2022-09-07T06:49:25.754Z,4.35
2022-09-07T06:51:29.041Z,5.35
2022-09-07T06:55:46.624Z,9.32
2022-09-07T06:57:53.341Z,5.15
2022-09-07T06:59:55.615Z,5.85
2022-09-07T07:01:57.706Z,4.10
2022-09-07T07:04:01.925Z,4.28
2022-09-07T07:06:04.781Z,3.50
2022-09-07T07:08:07.160Z,4.43
2022-09-07T07:10:09.838Z,5.72
2022-09-07T07:12:12.224Z,4.85
2022-09-07T07:14:15.563Z,11.27
2022-09-07T07:16:18.488Z,4.38
2022-09-07T07:18:21.474Z,3.83
2022-09-07T07:20:23.745Z,5.85
2022-09-07T07:24:48.455Z,5.28
2022-09-07T07:26:50.547Z,5.05
2022-09-07T07:29:03.321Z,3.15
2022-09-07T07:31:10.398Z,5.40
2022-09-07T07:33:14.314Z,5.50
2022-09-07T07:35:16.724Z,4.10
2022-09-07T07:37:19.285Z,6.53
2022-09-07T07:42:03.020Z,4.43
2022-09-07T07:44:06.223Z,4.70
2022-09-07T07:46:12.174Z,4.35
2022-09-07T07:48:14.621Z,3.80
2022-09-07T07:50:33.700Z,4.28
2022-09-07T07:55:01.782Z,4.70
2022-09-07T07:57:07.893Z,6.90
2022-09-07T07:59:15.041Z,5.07
2022-09-07T08:01:18.682Z,4.65
2022-09-07T08:03:25.378Z,5.07
2022-09-07T08:05:27.909Z,5.43
2022-09-07T08:07:30.296Z,7.50
2022-09-07T08:09:32.828Z,7.97
2022-09-07T08:11:35.610Z,4.85
2022-09-07T08:13:40.597Z,4.38
2022-09-07T08:15:46.718Z,4.20
2022-09-07T08:17:49.823Z,7.38
2022-09-07T08:19:52.512Z,4.88
2022-09-07T08:21:54.632Z,6.93
2022-09-07T08:23:56.543Z,6.32
2022-09-07T08:25:59.917Z,4.63
2022-09-07T08:28:02.472Z,5.32
2022-09-07T08:30:05.479Z,9.93
2022-09-07T08:32:07.654Z,5.45
2022-09-07T08:34:10.252Z,4.50
2022-09-07T08:36:17.092Z,4.53
2022-09-07T08:38:22.229Z,4.60
2022-09-07T08:40:24.179Z,3.75
2022-09-07T08:42:48.887Z,3.90
2022-09-07T08:45:17.682Z,3.65
2022-09-07T08:47:43.825Z,3.70
2022-09-07T08:49:52.935Z,4.78
2022-09-07T08:52:00.856Z,4.25
2022-09-07T08:54:04.660Z,3.80
2022-09-07T08:56:12.288Z,3.88
2022-09-07T08:58:48.842Z,5.18
2022-09-07T09:01:30.745Z,4.72
2022-09-07T09:03:35.010Z,5.63
2022-09-07T09:06:02.941Z,5.07
2022-09-07T09:08:10.964Z,5.40
2022-09-07T09:10:31.455Z,6.10
2022-09-07T09:12:56.715Z,5.00
2022-09-07T09:15:11.151Z,5.55
2022-09-07T09:17:23.621Z,5.10
2022-09-07T09:19:46.880Z,5.85
2022-09-07T09:22:11.551Z,4.38
2022-09-07T09:24:17.748Z,5.57
2022-09-07T09:26:31.606Z,6.13
2022-09-07T09:28:33.937Z,5.68
2022-09-07T09:30:36.238Z,6.63
2022-09-07T09:32:43.459Z,4.95
2022-09-07T09:35:01.951Z,4.85
2022-09-07T09:37:04.012Z,5.70
2022-09-07T09:39:37.732Z,10.38
2022-09-07T09:41:40.248Z,5.82
2022-09-07T09:43:55.386Z,5.03
2022-09-07T09:46:14.170Z,6.28
2022-09-07T09:48:21.261Z,6.25
2022-09-07T09:52:56.539Z,7.32
2022-09-07T09:55:17.223Z,7.15
2022-09-07T09:59:04.874Z,6.55
2022-09-07T10:00:22.439Z,5.88
2022-09-07T10:04:54.593Z,6.50
2022-09-07T10:07:23.222Z,5.60
2022-09-07T10:09:29.547Z,6.15
2022-09-07T10:12:07.658Z,5.88
2022-09-07T10:14:32.103Z,6.35
2022-09-07T10:16:40.712Z,5.78
2022-09-07T10:19:03.101Z,7.53
2022-09-07T10:21:17.145Z,5.55
2022-09-07T10:23:27.783Z,6.03
2022-09-07T10:25:34.164Z,5.43
2022-09-07T10:27:41.053Z,4.72
2022-09-07T10:29:43.169Z,5.40
2022-09-07T10:31:56.958Z,5.15
2022-09-07T10:36:45.871Z,5.30
2022-09-07T10:39:13.397Z,5.85
2022-09-07T10:41:19.378Z,5.13
2022-09-07T10:43:43.741Z,6.97
2022-09-07T10:46:07.459Z,7.28
2022-09-07T10:48:15.600Z,4.60
2022-09-07T10:50:32.381Z,5.03
2022-09-07T10:52:42.992Z,5.25
2022-09-07T10:55:08.204Z,5.47
2022-09-07T10:57:31.997Z,6.20
2022-09-07T11:00:10.963Z,6.60
2022-09-07T11:02:31.553Z,5.05
2022-09-07T11:05:04.707Z,5.43
2022-09-07T11:07:16.719Z,5.00
2022-09-07T11:09:32.308Z,4.57
2022-09-07T11:12:07.387Z,6.25
2022-09-07T11:14:16.937Z,4.88
2022-09-07T11:21:57.304Z,5.45
2022-09-07T11:24:22.511Z,6.07
2022-09-07T11:26:41.135Z,6.10
2022-09-07T11:31:30.459Z,5.32
2022-09-07T11:36:20.097Z,5.97
2022-09-07T11:38:34.475Z,5.65
2022-09-07T11:40:42.993Z,5.30
2022-09-07T11:42:59.849Z,5.47
2022-09-07T11:45:29.911Z,5.28
2022-09-07T11:47:35.808Z,6.32
2022-09-07T11:49:38.425Z,5.28
2022-09-07T11:51:46.893Z,5.25
2022-09-07T11:54:08.903Z,6.00
2022-09-07T11:56:20.798Z,5.60
2022-09-07T11:58:48.077Z,7.28
2022-09-07T12:00:53.297Z,6.07
2022-09-07T12:03:05.480Z,5.10
2022-09-07T12:05:45.033Z,5.05
2022-09-07T12:08:22.295Z,5.63
2022-09-07T12:10:56.085Z,5.40
2022-09-07T12:13:23.085Z,6.53
2022-09-07T12:15:36.567Z,6.38
2022-09-07T12:17:41.465Z,6.38
2022-09-07T12:19:43.581Z,5.80
2022-09-07T12:21:48.459Z,5.60
2022-09-07T12:23:50.415Z,5.15
2022-09-07T12:25:53.088Z,6.35
2022-09-07T12:27:55.374Z,5.65
2022-09-07T12:30:02.013Z,5.80
2022-09-07T12:34:32.597Z,5.97
2022-09-07T12:36:34.752Z,7.60
2022-09-07T12:39:04.462Z,6.40
2022-09-07T12:41:39.786Z,5.40
2022-09-07T12:43:44.727Z,5.63
2022-09-07T12:45:54.300Z,6.32
2022-09-07T12:48:05.562Z,6.40
2022-09-07T12:50:26.632Z,5.65
2022-09-07T12:52:39.454Z,6.43
2022-09-07T12:55:28.260Z,6.90
2022-09-07T12:57:56.008Z,6.13
2022-09-07T13:00:21.002Z,5.93
2022-09-07T13:02:48.878Z,5.97
2022-09-07T13:05:17.265Z,5.88
2022-09-07T13:07:25.293Z,6.32
2022-09-07T13:09:38.541Z,5.47
2022-09-07T13:11:40.921Z,5.20
2022-09-07T13:14:04.765Z,6.35
2022-09-07T13:16:11.783Z,5.75
2022-09-07T13:18:26.857Z,6.25
2022-09-07T13:20:37.628Z,6.93
2022-09-07T13:22:42.096Z,6.82
2022-09-07T13:24:55.269Z,6.70
2022-09-07T13:27:43.719Z,5.50
2022-09-07T13:29:55.522Z,7.30
2022-09-07T13:32:15.832Z,5.80
2022-09-07T13:34:44.783Z,6.47
2022-09-07T13:36:48.782Z,5.88
2022-09-07T13:38:52.204Z,5.97
2022-09-07T13:40:58.873Z,6.43
2022-09-07T13:43:04.035Z,6.88
2022-09-07T13:45:08.352Z,6.50
2022-09-07T13:47:30.944Z,6.05
2022-09-07T13:52:13.706Z,8.30
2022-09-07T13:54:34.120Z,7.30
2022-09-07T13:56:54.178Z,6.45
2022-09-07T13:58:56.852Z,6.40
2022-09-07T14:01:03.357Z,6.68
2022-09-07T14:03:07.617Z,6.60
2022-09-07T14:05:11.978Z,7.25
2022-09-07T14:07:17.336Z,9.07
2022-09-07T14:09:22.305Z,6.70
2022-09-07T14:11:43.265Z,8.30
2022-09-07T14:13:45.515Z,6.60
2022-09-07T14:15:50.201Z,6.30
2022-09-07T14:18:04.660Z,7.15
2022-09-07T14:20:07.608Z,6.55
2022-09-07T14:22:19.444Z,6.45
2022-09-07T14:24:35.689Z,7.53
2022-09-07T14:26:46.847Z,7.35
2022-09-07T14:28:52.256Z,7.80
2022-09-07T14:30:54.615Z,7.05
2022-09-07T14:33:01.070Z,7.60
2022-09-07T14:35:04.859Z,6.38
2022-09-07T14:37:12.531Z,7.03
2022-09-07T14:39:17.613Z,6.75
2022-09-07T14:41:23.186Z,6.57
2022-09-07T14:43:34.535Z,9.40
2022-09-07T14:45:37.837Z,7.90
2022-09-07T14:47:41.014Z,6.45
2022-09-07T14:49:43.755Z,7.15
2022-09-07T14:51:48.433Z,5.90
2022-09-07T14:53:55.820Z,6.07
2022-09-07T14:56:04.028Z,6.25
2022-09-07T14:58:15.269Z,6.57
2022-09-07T15:00:32.514Z,6.07
2022-09-07T15:02:37.188Z,6.70
2022-09-07T15:04:41.942Z,5.60
2022-09-07T15:07:02.661Z,6.45
2022-09-07T15:09:06.992Z,6.50
2022-09-07T15:11:35.397Z,5.78
2022-09-07T15:13:40.849Z,8.13
2022-09-07T15:15:46.741Z,5.88
2022-09-07T15:17:49.534Z,5.40
2022-09-07T15:19:52.071Z,6.57
2022-09-07T15:21:55.967Z,5.50
2022-09-07T15:24:00.488Z,5.60
2022-09-07T15:26:02.986Z,5.78
2022-09-07T15:28:05.423Z,5.80
2022-09-07T15:30:11.050Z,5.28
2022-09-07T15:32:15.811Z,5.68
2022-09-07T15:34:20.194Z,5.20
2022-09-07T15:36:24.655Z,7.03
2022-09-07T15:41:22.079Z,9.95
2022-09-07T15:43:21.605Z,15.90
2022-09-07T15:45:25.205Z,12.45
2022-09-07T15:47:47.253Z,16.42
2022-09-07T15:49:53.905Z,16.33
2022-09-07T15:52:11.735Z,18.67
2022-09-07T15:54:15.351Z,12.73
2022-09-07T15:56:19.933Z,13.48
2022-09-07T15:58:22.421Z,9.50
2022-09-07T16:00:24.893Z,9.07
2022-09-07T16:04:48.945Z,7.38
2022-09-07T16:06:51.107Z,6.45
2022-09-07T16:08:53.331Z,5.97
2022-09-07T16:10:56.448Z,6.20
2022-09-07T16:13:11.499Z,5.68
2022-09-07T16:15:18.467Z,5.47
2022-09-07T16:17:27.452Z,5.88
2022-09-07T16:19:40.635Z,4.82
2022-09-07T16:21:43.354Z,5.90
2022-09-07T16:23:51.109Z,6.15
2022-09-07T16:26:00.824Z,6.50
2022-09-07T16:28:05.671Z,5.65
2022-09-07T16:30:08.578Z,5.95
2022-09-07T16:34:39.016Z,6.03
2022-09-07T16:36:40.963Z,5.70
2022-09-07T16:38:50.034Z,6.55
2022-09-07T16:40:52.408Z,5.35
2022-09-07T16:42:54.889Z,6.28
2022-09-07T16:46:02.538Z,6.35
2022-09-07T16:47:19.406Z,6.85
2022-09-07T16:49:21.689Z,6.75
2022-09-07T16:51:25.037Z,6.07
2022-09-07T16:53:28.237Z,6.70
2022-09-07T16:55:30.720Z,6.82
2022-09-07T16:58:35.197Z,6.50
2022-09-07T16:59:55.267Z,8.80
2022-09-07T17:01:57.409Z,6.00
2022-09-07T17:04:00.481Z,7.85
2022-09-07T17:06:04.080Z,8.05
2022-09-07T17:08:06.879Z,8.88
2022-09-07T17:10:11.798Z,9.77
2022-09-07T17:12:14.117Z,7.70
2022-09-07T17:14:16.536Z,9.60
2022-09-07T17:16:21.675Z,9.23
2022-09-07T17:20:58.566Z,7.82
2022-09-07T17:23:01.683Z,9.57
2022-09-07T17:25:04.125Z,7.90
2022-09-07T17:27:06.368Z,11.07
2022-09-07T17:29:09.202Z,9.73
2022-09-07T17:32:23.753Z,8.45
2022-09-07T17:33:37.470Z,11.65
2022-09-07T17:35:42.094Z,9.00
2022-09-07T17:37:44.312Z,8.77
2022-09-07T17:39:46.270Z,9.40
2022-09-07T17:41:52.640Z,10.05
2022-09-07T17:43:56.979Z,9.18
2022-09-07T17:46:04.419Z,8.75
2022-09-07T17:48:06.788Z,8.68
2022-09-07T17:50:09.248Z,8.30
2022-09-07T17:52:11.487Z,9.15
2022-09-07T17:54:16.316Z,8.82
2022-09-07T17:56:18.267Z,10.32
2022-09-07T17:58:20.632Z,12.52
2022-09-07T18:00:22.835Z,14.32
2022-09-07T18:02:28.632Z,12.95
2022-09-07T18:04:33.610Z,18.35
2022-09-07T18:06:36.210Z,14.00
2022-09-07T18:08:38.951Z,14.55
2022-09-07T18:13:05.945Z,14.90
2022-09-07T18:15:12.531Z,13.18
2022-09-07T18:17:14.605Z,13.93
2022-09-07T18:19:18.328Z,13.35
2022-09-07T18:21:28.323Z,12.63
2022-09-07T18:23:30.581Z,11.95
2022-09-07T18:25:34.996Z,11.30
2022-09-07T18:27:39.523Z,10.80
2022-09-07T18:29:41.808Z,10.10
2022-09-07T18:31:43.994Z,11.75
2022-09-07T18:33:47.674Z,9.45
2022-09-07T18:35:50.057Z,10.80
2022-09-07T18:37:53.470Z,10.50
2022-09-07T18:39:57.510Z,11.00
2022-09-07T18:41:59.669Z,12.73
2022-09-07T18:44:02.508Z,13.15
2022-09-07T18:46:23.270Z,13.43
2022-09-07T18:48:25.698Z,17.25
2022-09-07T18:50:27.678Z,15.38
2022-09-07T18:54:55.001Z,15.57
2022-09-07T18:56:58.173Z,12.07
2022-09-07T18:59:00.608Z,12.27
2022-09-07T19:01:07.845Z,10.40
2022-09-07T19:03:10.968Z,11.48
2022-09-07T19:07:35.625Z,10.15
2022-09-07T19:09:38.804Z,12.23
2022-09-07T19:11:42.538Z,9.88
2022-09-07T19:13:45.957Z,11.30
2022-09-07T19:15:47.841Z,12.20
2022-09-07T19:17:49.910Z,9.13
2022-09-07T19:19:52.871Z,9.57
2022-09-07T19:21:57.783Z,9.57
2022-09-07T19:24:02.627Z,9.73
2022-09-07T19:26:07.406Z,8.80
2022-09-07T19:28:09.596Z,9.00
2022-09-07T19:30:12.179Z,9.48
2022-09-07T19:32:14.412Z,9.88
2022-09-07T19:34:17.153Z,10.90
2022-09-07T19:36:19.076Z,10.70
2022-09-07T19:38:21.323Z,14.40
2022-09-07T19:40:23.338Z,10.10
2022-09-07T19:42:27.972Z,9.57
2022-09-07T19:44:32.443Z,9.27
2022-09-07T19:46:34.671Z,9.65
2022-09-07T19:48:37.845Z,11.05
2022-09-07T19:50:39.657Z,8.70
2022-09-07T19:52:41.483Z,9.65
2022-09-07T19:54:43.912Z,9.95
2022-09-07T19:56:46.362Z,11.88
2022-09-07T19:58:55.063Z,9.35
2022-09-07T20:00:57.625Z,8.98
2022-09-07T20:02:59.976Z,8.77
2022-09-07T20:05:02.283Z,9.57
2022-09-07T20:07:04.406Z,9.50
2022-09-07T20:09:08.260Z,10.45
2022-09-07T20:11:14.207Z,10.90
2022-09-07T20:13:16.538Z,10.45
2022-09-07T20:15:18.637Z,9.13
2022-09-07T20:17:20.597Z,10.13
2022-09-07T20:19:22.731Z,9.68
2022-09-07T20:21:26.106Z,9.48
2022-09-07T20:23:28.500Z,11.75
2022-09-07T20:25:30.830Z,9.80
2022-09-07T20:27:35.910Z,9.55
2022-09-07T20:29:38.513Z,9.32
2022-09-07T20:31:40.732Z,9.50
2022-09-07T20:33:44.947Z,10.18
2022-09-07T20:35:48.020Z,11.43
2022-09-07T20:37:50.337Z,10.98
2022-09-07T20:39:52.281Z,9.65
2022-09-07T20:41:54.188Z,10.73
2022-09-07T20:43:59.198Z,9.85
2022-09-07T20:46:01.587Z,9.40
2022-09-07T20:48:03.851Z,11.48
2022-09-07T20:50:06.757Z,10.38
2022-09-07T20:52:09.023Z,9.40
2022-09-07T20:54:11.025Z,10.00
2022-09-07T20:56:21.593Z,12.02
2022-09-07T20:58:23.823Z,11.80
2022-09-07T21:00:26.345Z,10.07
2022-09-07T21:02:28.475Z,8.93
2022-09-07T21:04:30.566Z,10.32
2022-09-07T21:06:33.017Z,12.57
2022-09-07T21:08:39.213Z,9.25
2022-09-07T21:10:43.009Z,11.77
2022-09-07T21:12:45.132Z,10.35
2022-09-07T21:14:47.598Z,8.38
2022-09-07T21:16:49.560Z,9.43
2022-09-07T21:18:59.733Z,9.48
2022-09-07T21:21:19.359Z,8.70
2022-09-07T21:23:23.366Z,10.35
2022-09-07T21:25:25.799Z,9.35
2022-09-07T21:27:28.310Z,12.43
2022-09-07T21:29:30.443Z,9.10
2022-09-07T21:31:33.939Z,9.93
2022-09-07T21:33:37.813Z,8.73
2022-09-07T21:35:40.609Z,8.00
2022-09-07T21:37:42.700Z,8.52
2022-09-07T21:39:46.156Z,9.25
2022-09-07T21:41:48.338Z,10.52
2022-09-07T21:43:57.869Z,8.60
2022-09-07T21:46:25.062Z,9.63
2022-09-07T21:48:27.413Z,8.95
2022-09-07T21:50:30.090Z,10.40
2022-09-07T21:52:32.209Z,10.20
2022-09-07T21:54:34.219Z,7.82
2022-09-07T21:56:36.705Z,8.82
2022-09-07T21:58:40.121Z,7.55
2022-09-07T22:00:43.982Z,9.93
2022-09-07T22:02:45.965Z,8.45
2022-09-07T22:04:48.349Z,7.95
2022-09-07T22:06:50.470Z,11.35
2022-09-07T22:08:52.439Z,9.63
2022-09-07T22:10:54.487Z,7.45
2022-09-07T22:12:56.784Z,9.18
2022-09-07T22:14:58.937Z,8.32
2022-09-07T22:17:00.897Z,7.25
2022-09-07T22:19:03.253Z,6.63
2022-09-07T22:21:13.960Z,11.30
2022-09-07T22:23:15.885Z,10.27
2022-09-07T22:25:21.614Z,8.50
2022-09-07T22:27:23.647Z,7.28
2022-09-07T22:29:25.866Z,9.82
2022-09-07T22:31:30.835Z,7.78
2022-09-07T22:33:33.066Z,7.85
2022-09-07T22:35:35.408Z,8.05
2022-09-07T22:37:37.767Z,7.60
2022-09-07T22:39:39.883Z,7.40
2022-09-07T22:41:42.464Z,8.68
2022-09-07T22:43:45.423Z,7.57
2022-09-07T22:45:47.477Z,7.03
2022-09-07T22:47:49.542Z,7.97
2022-09-07T22:49:51.845Z,8.95
2022-09-07T22:51:53.922Z,7.82
2022-09-07T22:53:56.329Z,11.98
2022-09-07T22:55:59.374Z,10.00
2022-09-07T22:58:01.241Z,7.57
2022-09-07T23:00:04.478Z,9.13
2022-09-07T23:02:06.458Z,8.05
2022-09-07T23:04:10.198Z,11.98
2022-09-07T23:06:22.648Z,9.23
2022-09-07T23:08:25.598Z,8.52
2022-09-07T23:10:28.544Z,7.97
2022-09-07T23:12:31.436Z,10.82
2022-09-07T23:14:33.835Z,8.57
2022-09-07T23:16:35.900Z,11.63
2022-09-07T23:18:41.204Z,8.93
2022-09-07T23:20:43.485Z,6.85
2022-09-07T23:22:48.376Z,9.75
2022-09-07T23:24:50.483Z,10.27
2022-09-07T23:26:52.488Z,9.35
2022-09-07T23:28:57.361Z,8.80
2022-09-07T23:30:59.693Z,12.88
2022-09-07T23:33:02.784Z,8.77
2022-09-07T23:35:05.719Z,9.25
2022-09-07T23:37:07.750Z,7.75
2022-09-07T23:39:09.903Z,8.55
2022-09-07T23:41:14.126Z,8.95
2022-09-07T23:43:16.315Z,9.52
2022-09-07T23:45:18.528Z,7.13
2022-09-07T23:47:20.744Z,9.98
2022-09-07T23:49:23.006Z,6.05
2022-09-07T23:51:25.300Z,17.52
2022-09-07T23:53:27.399Z,9.50
2022-09-07T23:55:29.944Z,8.43
2022-09-07T23:57:32.208Z,6.78
2022-09-07T23:59:34.387Z,8.32
